Time;durP1;ratioP1;P1;durP2;ratioP2;P2;SDS_P1;SDS_P2;PMS_P1;PMS_P2;Temp;Humidity;BMP_temperature;BMP_pressure;BME280_temperature;BME280_humidity;BME280_pressure;Samples;Min_cycle;Max_cycle;Signal;HPM_P1;HPM_P2
2021/05/30 00:02:43;;;;;;;5.03;3.60;;;11.10;1.00;;;;;;5101124;28;20136;-64
2021/05/30 00:05:31;;;;;;;4.00;3.33;;;11.00;1.00;;;;;;5101615;28;20051;-64
2021/05/30 00:08:19;;;;;;;3.90;3.08;;;10.90;1.00;;;;;;5100790;28;20047;-65
2021/05/30 00:11:08;;;;;;;4.00;3.55;;;10.80;1.00;;;;;;5096751;28;20641;-65
2021/05/30 00:13:58;;;;;;;5.22;3.22;;;10.90;1.00;;;;;;5105978;28;20581;-64
2021/05/30 00:16:45;;;;;;;4.95;3.83;;;10.70;1.00;;;;;;5103511;28;20525;-64
2021/05/30 00:19:34;;;;;;;4.75;3.58;;;10.70;1.00;;;;;;5096956;28;20130;-64
2021/05/30 00:22:22;;;;;;;4.45;3.58;;;10.70;1.00;;;;;;5097163;28;20047;-65
2021/05/30 00:25:11;;;;;;;5.05;3.42;;;10.70;1.00;;;;;;5104362;28;20047;-64
2021/05/30 00:28:00;;;;;;;4.95;3.38;;;10.60;1.00;;;;;;5102172;28;20052;-64
2021/05/30 00:30:48;;;;;;;4.47;3.45;;;10.60;1.00;;;;;;5102148;28;20430;-64
2021/05/30 00:33:36;;;;;;;5.43;3.50;;;10.70;1.00;;;;;;5100733;27;20051;-65
2021/05/30 00:36:23;;;;;;;4.70;3.50;;;10.60;1.00;;;;;;5104894;27;20188;-64
2021/05/30 00:39:11;;;;;;;5.68;3.65;;;10.60;1.00;;;;;;5100348;27;20086;-65
2021/05/30 00:41:59;;;;;;;5.90;4.10;;;10.80;1.00;;;;;;5106546;27;20080;-65
2021/05/30 00:44:48;;;;;;;7.57;4.47;;;10.80;1.00;;;;;;5106956;27;20136;-65
2021/05/30 00:47:36;;;;;;;6.82;3.90;;;10.80;1.00;;;;;;5099116;27;20044;-64
2021/05/30 00:50:24;;;;;;;4.97;3.75;;;10.50;1.00;;;;;;5106111;27;20102;-65
2021/05/30 00:53:12;;;;;;;7.68;4.43;;;10.40;1.00;;;;;;5104024;27;20071;-64
2021/05/30 00:56:00;;;;;;;6.55;4.30;;;10.30;1.00;;;;;;5106018;27;20138;-64
2021/05/30 00:58:48;;;;;;;7.32;4.30;;;10.40;1.00;;;;;;5098942;27;20059;-64
2021/05/30 01:01:37;;;;;;;5.82;5.03;;;10.30;1.00;;;;;;5102983;27;20087;-65
2021/05/30 01:04:25;;;;;;;7.13;4.82;;;10.20;1.00;;;;;;5106659;27;20055;-64
2021/05/30 01:07:15;;;;;;;7.20;5.70;;;10.20;1.00;;;;;;5112396;27;20504;-65
2021/05/30 01:10:26;;;;;;;6.18;5.03;;;10.20;1.00;;;;;;5105140;27;20487;-65
2021/05/30 01:13:15;;;;;;;8.05;5.20;;;10.10;1.00;;;;;;5101385;27;20410;-64
2021/05/30 01:16:03;;;;;;;8.07;5.45;;;10.10;1.00;;;;;;5100966;27;20172;-64
2021/05/30 01:18:54;;;;;;;8.40;5.53;;;10.10;1.00;;;;;;5109904;27;20048;-64
2021/05/30 01:21:44;;;;;;;5.38;4.53;;;10.20;1.00;;;;;;5098545;27;20044;-65
2021/05/30 01:24:34;;;;;;;5.82;4.50;;;10.30;1.00;;;;;;5103452;27;20036;-66
2021/05/30 01:27:22;;;;;;;5.18;4.65;;;10.30;1.00;;;;;;5107160;27;20048;-65
2021/05/30 01:30:12;;;;;;;5.75;4.50;;;10.30;1.00;;;;;;5101594;27;20192;-66
2021/05/30 01:33:04;;;;;;;5.10;4.35;;;10.30;1.00;;;;;;5104275;27;20052;-64
2021/05/30 01:35:52;;;;;;;6.05;4.82;;;10.40;1.00;;;;;;5102911;27;20079;-64
2021/05/30 01:38:39;;;;;;;5.28;4.50;;;10.40;1.00;;;;;;5104545;27;20043;-65
2021/05/30 01:41:28;;;;;;;6.22;4.78;;;10.30;1.00;;;;;;5098125;28;20046;-64
2021/05/30 01:44:16;;;;;;;5.07;4.57;;;10.40;1.00;;;;;;5108012;27;20043;-65
2021/05/30 01:47:04;;;;;;;8.70;4.93;;;10.30;1.00;;;;;;5105891;27;20043;-65
2021/05/30 01:49:52;;;;;;;6.03;4.38;;;10.30;1.00;;;;;;5105621;27;20039;-65
2021/05/30 01:52:41;;;;;;;6.40;4.70;;;10.20;1.00;;;;;;5094558;28;20088;-65
2021/05/30 01:55:31;;;;;;;6.03;4.43;;;10.20;1.00;;;;;;5097752;27;21418;-65
2021/05/30 01:58:20;;;;;;;4.55;3.83;;;10.10;1.00;;;;;;5103156;27;20563;-64
2021/05/30 02:01:11;;;;;;;4.78;3.97;;;10.10;1.00;;;;;;5106995;27;20174;-65
2021/05/30 02:04:02;;;;;;;6.60;4.20;;;10.20;1.00;;;;;;5100812;27;20047;-65
2021/05/30 02:06:50;;;;;;;5.70;4.40;;;10.30;1.00;;;;;;5098436;27;20056;-65
2021/05/30 02:09:39;;;;;;;4.93;3.83;;;10.40;1.00;;;;;;5097483;27;20074;-65
2021/05/30 02:12:28;;;;;;;5.80;3.92;;;10.30;1.00;;;;;;5109467;27;20096;-65
2021/05/30 02:15:18;;;;;;;6.85;3.83;;;10.20;1.00;;;;;;5097367;27;20044;-65
2021/05/30 02:18:06;;;;;;;6.05;4.18;;;10.10;1.00;;;;;;5099957;27;20044;-65
2021/05/30 02:20:54;;;;;;;4.82;3.97;;;10.00;1.00;;;;;;5102287;27;20058;-65
2021/05/30 02:23:42;;;;;;;7.22;4.72;;;9.80;1.00;;;;;;5109111;27;20240;-64
2021/05/30 02:26:30;;;;;;;5.10;4.15;;;9.80;1.00;;;;;;5109235;27;20078;-64
2021/05/30 02:29:40;;;;;;;5.45;4.25;;;9.70;1.00;;;;;;5099945;27;20083;-64
2021/05/30 02:32:29;;;;;;;4.63;4.07;;;9.70;1.00;;;;;;5098244;28;20173;-64
2021/05/30 02:35:17;;;;;;;6.93;4.10;;;9.70;1.00;;;;;;5096640;28;20048;-65
2021/05/30 02:38:05;;;;;;;6.28;4.40;;;9.70;1.00;;;;;;5098507;28;20071;-66
2021/05/30 02:40:53;;;;;;;5.03;3.80;;;9.70;1.00;;;;;;5104927;27;20047;-65
2021/05/30 02:43:41;;;;;;;6.05;4.35;;;9.70;1.00;;;;;;5105011;27;20183;-65
2021/05/30 02:46:29;;;;;;;7.07;3.97;;;9.70;1.00;;;;;;5098533;28;20518;-65
2021/05/30 02:49:19;;;;;;;6.00;4.22;;;9.70;1.00;;;;;;5103775;27;20048;-65
2021/05/30 02:52:07;;;;;;;4.25;3.58;;;9.70;1.00;;;;;;5102373;27;20044;-64
2021/05/30 02:54:55;;;;;;;4.70;3.95;;;9.70;1.00;;;;;;5106096;27;21092;-65
2021/05/30 02:57:43;;;;;;;5.93;4.35;;;9.70;1.00;;;;;;5096729;27;20048;-65
2021/05/30 03:00:31;;;;;;;5.63;4.10;;;9.70;1.00;;;;;;5099984;28;20169;-65
2021/05/30 03:03:19;;;;;;;7.80;4.63;;;9.70;1.00;;;;;;5106114;27;24013;-66
2021/05/30 03:06:08;;;;;;;7.32;4.57;;;9.70;1.00;;;;;;5108895;27;20122;-66
2021/05/30 03:08:58;;;;;;;6.13;3.85;;;9.60;1.00;;;;;;5100597;27;20499;-66
2021/05/30 03:11:46;;;;;;;6.03;4.30;;;9.60;1.00;;;;;;5095100;28;20044;-65
2021/05/30 03:14:34;;;;;;;5.97;3.65;;;9.60;1.00;;;;;;5101603;27;20044;-64
2021/05/30 03:17:22;;;;;;;6.53;4.15;;;9.50;1.00;;;;;;5112247;27;20082;-65
2021/05/30 03:20:11;;;;;;;5.78;4.28;;;9.50;1.00;;;;;;5095133;28;20134;-65
2021/05/30 03:23:00;;;;;;;5.72;3.88;;;9.50;1.00;;;;;;5099375;27;20134;-65
2021/05/30 03:25:48;;;;;;;5.25;4.22;;;9.60;1.00;;;;;;5098321;27;20089;-65
2021/05/30 03:28:37;;;;;;;5.22;4.50;;;9.60;1.00;;;;;;5101867;27;20052;-64
2021/05/30 03:31:25;;;;;;;6.45;4.78;;;9.60;1.00;;;;;;5102093;27;20491;-64
2021/05/30 03:34:12;;;;;;;5.10;3.90;;;9.60;1.00;;;;;;5098366;28;20040;-64
2021/05/30 03:37:00;;;;;;;4.68;4.03;;;9.60;1.00;;;;;;5099063;28;20047;-65
2021/05/30 03:39:52;;;;;;;5.70;4.18;;;9.70;1.00;;;;;;5103173;28;20063;-65
2021/05/30 03:42:47;;;;;;;4.63;3.83;;;9.80;1.00;;;;;;5100194;28;20151;-64
2021/05/30 03:45:35;;;;;;;5.25;3.88;;;10.10;1.00;;;;;;5105495;27;20447;-64
2021/05/30 03:48:23;;;;;;;4.10;3.70;;;10.10;1.00;;;;;;5099859;28;20409;-66
2021/05/30 03:51:11;;;;;;;5.68;3.90;;;11.20;1.00;;;;;;5103138;27;20039;-66
2021/05/30 03:53:59;;;;;;;5.18;3.65;;;11.90;1.00;;;;;;5101665;28;20048;-64
2021/05/30 03:56:48;;;;;;;3.92;3.40;;;12.60;1.00;;;;;;5099905;28;20050;-65
2021/05/30 03:59:36;;;;;;;5.15;3.80;;;12.80;1.00;;;;;;5099541;28;20160;-65
2021/05/30 04:02:24;;;;;;;5.22;3.70;;;12.80;1.00;;;;;;5103546;28;20576;-65
2021/05/30 04:05:13;;;;;;;6.32;3.63;;;13.20;1.00;;;;;;5107009;28;20053;-65
2021/05/30 04:08:01;;;;;;;4.53;3.72;;;13.60;1.00;;;;;;5110148;27;20184;-66
2021/05/30 04:10:49;;;;;;;3.90;3.08;;;13.70;1.00;;;;;;5100854;28;20509;-66
2021/05/30 04:13:38;;;;;;;4.45;3.20;;;14.40;1.00;;;;;;5099917;27;20050;-65
2021/05/30 04:16:25;;;;;;;4.45;3.70;;;14.80;1.00;;;;;;5101854;28;20046;-65
2021/05/30 04:19:13;;;;;;;6.22;3.97;;;14.90;1.00;;;;;;5104723;27;20130;-65
2021/05/30 04:22:01;;;;;;;4.20;3.47;;;15.20;1.00;;;;;;5099978;27;20498;-65
2021/05/30 04:24:50;;;;;;;4.47;3.70;;;15.10;1.00;;;;;;5100743;27;20074;-64
2021/05/30 04:27:38;;;;;;;4.30;3.40;;;15.90;1.00;;;;;;5102181;28;20075;-64
2021/05/30 04:30:27;;;;;;;5.80;3.83;;;16.00;1.00;;;;;;5104511;27;20044;-65
2021/05/30 04:33:15;;;;;;;4.65;3.78;;;15.70;1.00;;;;;;5108157;27;20571;-65
2021/05/30 04:36:04;;;;;;;5.88;4.22;;;16.30;1.00;;;;;;5104182;28;20110;-65
2021/05/30 04:38:51;;;;;;;4.28;3.58;;;16.50;1.00;;;;;;5103243;27;20455;-65
2021/05/30 04:41:39;;;;;;;5.30;3.85;;;16.40;1.00;;;;;;5098107;27;20118;-65
2021/05/30 04:44:27;;;;;;;4.57;3.53;;;16.20;1.00;;;;;;5113185;27;20148;-66
2021/05/30 04:47:16;;;;;;;5.60;4.07;;;16.80;1.00;;;;;;5101368;27;20054;-66
2021/05/30 04:50:05;;;;;;;5.38;3.60;;;17.20;1.00;;;;;;5105325;27;20118;-65
2021/05/30 04:52:58;;;;;;;5.32;3.50;;;16.90;1.00;;;;;;5105128;27;20105;-66
2021/05/30 04:55:45;;;;;;;4.75;3.60;;;17.10;1.00;;;;;;5104995;28;20128;-66
2021/05/30 04:58:34;;;;;;;5.32;4.05;;;17.70;1.00;;;;;;5107979;28;20092;-65
2021/05/30 05:01:22;;;;;;;6.40;3.72;;;17.60;1.00;;;;;;5100213;27;20074;-65
2021/05/30 05:04:11;;;;;;;5.00;3.95;;;17.10;1.00;;;;;;5100795;27;20094;-66
2021/05/30 05:06:59;;;;;;;6.88;4.18;;;16.80;1.00;;;;;;5106367;28;20523;-66
2021/05/30 05:09:48;;;;;;;6.55;4.68;;;16.70;1.00;;;;;;5110376;27;20054;-66
2021/05/30 05:12:36;;;;;;;5.28;4.50;;;16.60;1.00;;;;;;5105901;27;20169;-65
2021/05/30 05:15:24;;;;;;;5.18;4.30;;;17.10;1.00;;;;;;5101298;28;20050;-66
2021/05/30 05:18:14;;;;;;;5.10;4.20;;;17.40;1.00;;;;;;5102679;27;20044;-66
2021/05/30 05:21:04;;;;;;;5.32;4.32;;;16.90;1.00;;;;;;5113795;27;20045;-65
2021/05/30 05:23:54;;;;;;;5.25;4.10;;;17.10;1.00;;;;;;5103960;27;20495;-65
2021/05/30 05:26:45;;;;;;;5.28;4.07;;;16.70;1.00;;;;;;5098435;28;20044;-67
2021/05/30 05:29:33;;;;;;;8.27;4.57;;;16.80;1.00;;;;;;5103945;27;20052;-65
2021/05/30 05:32:21;;;;;;;4.50;4.05;;;17.20;1.00;;;;;;5105575;27;20120;-66
2021/05/30 05:35:09;;;;;;;7.57;4.72;;;17.80;1.00;;;;;;5109523;27;20135;-66
2021/05/30 05:37:59;;;;;;;5.47;4.15;;;17.50;1.00;;;;;;5102711;27;20044;-66
2021/05/30 05:40:47;;;;;;;5.20;4.38;;;17.70;1.00;;;;;;5102118;27;20122;-65
2021/05/30 05:43:35;;;;;;;6.15;4.82;;;16.80;1.00;;;;;;5099137;28;20044;-66
2021/05/30 05:46:23;;;;;;;5.30;4.72;;;16.80;1.00;;;;;;5108016;28;20101;-65
2021/05/30 05:49:11;;;;;;;7.40;4.63;;;16.20;1.00;;;;;;5104765;27;20054;-65
2021/05/30 05:51:59;;;;;;;6.93;4.95;;;17.10;1.00;;;;;;5099341;28;20281;-65
2021/05/30 05:55:07;;;;;;;6.45;4.78;;;16.60;1.00;;;;;;5104204;27;20048;-65
2021/05/30 05:57:56;;;;;;;6.38;4.88;;;16.40;1.00;;;;;;5103277;27;20200;-66
2021/05/30 06:00:44;;;;;;;5.40;4.05;;;17.10;1.00;;;;;;5109389;27;20510;-66
2021/05/30 06:03:32;;;;;;;9.75;4.63;;;16.70;1.00;;;;;;5100441;28;20059;-65
2021/05/30 06:06:20;;;;;;;9.23;5.18;;;16.10;1.00;;;;;;5099820;27;20055;-66
2021/05/30 06:09:08;;;;;;;8.15;4.63;;;15.70;1.00;;;;;;5100207;27;20051;-65
2021/05/30 06:11:59;;;;;;;7.85;4.90;;;15.20;1.00;;;;;;5104455;28;20044;-65
2021/05/30 06:14:47;;;;;;;5.53;4.22;;;14.50;1.00;;;;;;5100917;27;20746;-65
2021/05/30 06:17:35;;;;;;;5.97;4.70;;;14.50;1.00;;;;;;5099283;28;20074;-66
2021/05/30 06:20:25;;;;;;;5.65;4.50;;;14.80;1.00;;;;;;5099727;28;20058;-66
2021/05/30 06:23:14;;;;;;;7.25;4.75;;;14.80;1.00;;;;;;5103944;27;20104;-65
2021/05/30 06:26:02;;;;;;;5.57;4.65;;;15.70;1.00;;;;;;5100580;28;20036;-65
2021/05/30 06:28:50;;;;;;;4.95;4.40;;;15.90;1.00;;;;;;5099774;27;20044;-66
2021/05/30 06:31:38;;;;;;;5.95;4.80;;;16.40;1.00;;;;;;5095311;28;20168;-65
2021/05/30 06:34:27;;;;;;;6.65;4.68;;;15.90;1.00;;;;;;5097897;28;20502;-65
2021/05/30 06:37:15;;;;;;;5.63;4.50;;;16.60;1.00;;;;;;5104202;27;20110;-65
2021/05/30 06:40:04;;;;;;;6.28;4.80;;;16.80;1.00;;;;;;5106453;27;20478;-65
2021/05/30 06:42:52;;;;;;;6.53;4.90;;;16.70;1.00;;;;;;5104898;27;20097;-66
2021/05/30 06:45:41;;;;;;;6.53;4.40;;;15.40;1.00;;;;;;5096856;28;20070;-64
2021/05/30 06:48:29;;;;;;;6.78;4.88;;;15.00;1.00;;;;;;5098607;27;20193;-65
2021/05/30 06:51:17;;;;;;;5.85;4.25;;;14.80;1.00;;;;;;5094807;27;20055;-65
2021/05/30 06:54:07;;;;;;;5.72;4.55;;;14.90;1.00;;;;;;5107285;28;20043;-65
2021/05/30 06:56:54;;;;;;;5.18;4.15;;;15.00;1.00;;;;;;5094883;28;20092;-65
2021/05/30 06:59:43;;;;;;;5.88;4.10;;;15.20;1.00;;;;;;5096680;27;20127;-64
2021/05/30 07:02:31;;;;;;;6.55;4.88;;;15.30;1.00;;;;;;5102448;27;20587;-65
2021/05/30 07:05:22;;;;;;;5.32;4.05;;;15.10;1.00;;;;;;5113514;27;20036;-65
2021/05/30 07:08:10;;;;;;;6.03;4.60;;;15.00;1.00;;;;;;5101815;27;20135;-65
2021/05/30 07:10:58;;;;;;;5.88;4.50;;;15.40;1.00;;;;;;5099134;27;20097;-65
2021/05/30 07:13:46;;;;;;;7.35;4.32;;;15.40;1.00;;;;;;5096011;27;20411;-65
2021/05/30 07:16:34;;;;;;;5.68;4.25;;;15.40;1.00;;;;;;5105769;27;20122;-65
2021/05/30 07:19:23;;;;;;;5.10;4.35;;;15.60;1.00;;;;;;5110893;27;20043;-66
2021/05/30 07:22:11;;;;;;;5.97;4.03;;;16.00;1.00;;;;;;5099874;27;20083;-66
2021/05/30 07:24:59;;;;;;;6.82;4.00;;;16.30;1.00;;;;;;5099248;28;20051;-66
2021/05/30 07:27:47;;;;;;;4.80;4.20;;;16.00;1.00;;;;;;5103699;27;20047;-66
2021/05/30 07:30:36;;;;;;;6.57;4.00;;;16.10;1.00;;;;;;5104103;27;20434;-66
2021/05/30 07:33:24;;;;;;;5.47;4.10;;;16.00;1.00;;;;;;5102500;28;20486;-65
2021/05/30 07:36:13;;;;;;;6.80;4.00;;;16.10;1.00;;;;;;5101665;27;20042;-66
2021/05/30 07:39:01;;;;;;;6.63;3.90;;;16.30;1.00;;;;;;5104616;27;20044;-65
2021/05/30 07:41:49;;;;;;;8.20;4.00;;;15.90;1.00;;;;;;5103894;27;20115;-66
2021/05/30 07:44:40;;;;;;;6.65;4.22;;;16.30;1.00;;;;;;5103149;27;20043;-66
2021/05/30 07:47:28;;;;;;;4.60;3.78;;;16.30;1.00;;;;;;5098136;28;20490;-66
2021/05/30 07:50:17;;;;;;;5.50;3.97;;;16.70;1.00;;;;;;5098081;27;20503;-66
2021/05/30 07:53:06;;;;;;;6.05;4.20;;;16.40;1.00;;;;;;5099668;28;20043;-65
2021/05/30 07:55:53;;;;;;;4.53;4.05;;;16.50;1.00;;;;;;5098260;28;20169;-65
2021/05/30 07:58:41;;;;;;;6.47;4.00;;;16.40;1.00;;;;;;5099287;28;20055;-65
2021/05/30 08:01:29;;;;;;;4.93;3.90;;;16.60;1.00;;;;;;5096489;28;20498;-66
2021/05/30 08:04:17;;;;;;;4.35;3.20;;;16.60;1.00;;;;;;5098261;28;20417;-65
2021/05/30 08:07:05;;;;;;;4.50;3.35;;;16.80;1.00;;;;;;5102754;28;20127;-65
2021/05/30 08:09:57;;;;;;;4.68;3.50;;;16.40;1.00;;;;;;5102230;28;20510;-65
2021/05/30 08:12:48;;;;;;;5.97;3.60;;;16.70;1.00;;;;;;5096835;28;20051;-64
2021/05/30 08:15:41;;;;;;;3.22;2.90;;;16.60;1.00;;;;;;5097819;28;20055;-65
2021/05/30 08:18:29;;;;;;;6.65;3.60;;;16.80;1.00;;;;;;5101008;28;20047;-66
2021/05/30 08:21:17;;;;;;;6.55;3.58;;;17.00;1.00;;;;;;5104160;28;20045;-65
2021/05/30 08:24:06;;;;;;;4.13;3.35;;;16.80;1.00;;;;;;5102117;28;20047;-66
2021/05/30 08:27:09;;;;;;;6.47;3.63;;;17.30;1.00;;;;;;5103797;28;20036;-64
2021/05/30 08:29:57;;;;;;;4.88;3.45;;;17.30;1.00;;;;;;5099190;28;20087;-66
2021/05/30 08:32:45;;;;;;;4.65;3.60;;;16.80;1.00;;;;;;5100220;28;20128;-66
2021/05/30 08:35:34;;;;;;;5.22;3.20;;;17.10;1.00;;;;;;5100432;28;20051;-65
2021/05/30 08:38:32;;;;;;;5.15;3.35;;;17.00;1.00;;;;;;5100067;28;20046;-65
2021/05/30 08:41:21;;;;;;;2.90;2.58;;;17.40;1.00;;;;;;5093816;28;20108;-66
2021/05/30 08:44:11;;;;;;;3.80;3.00;;;17.20;1.00;;;;;;5104912;28;20128;-66
2021/05/30 08:46:59;;;;;;;5.00;2.70;;;17.30;1.00;;;;;;5104463;28;20051;-66
2021/05/30 08:49:47;;;;;;;4.18;3.13;;;17.40;1.00;;;;;;5104389;28;20040;-66
2021/05/30 08:52:34;;;;;;;3.50;2.72;;;17.30;1.00;;;;;;5094865;28;20514;-66
2021/05/30 08:55:22;;;;;;;4.63;3.10;;;17.10;1.00;;;;;;5101787;27;20047;-66
2021/05/30 08:58:11;;;;;;;3.97;2.35;;;17.60;1.00;;;;;;5111949;27;20168;-66
2021/05/30 09:01:08;;;;;;;4.20;2.70;;;17.60;1.00;;;;;;5100383;27;20059;-66
2021/05/30 09:04:03;;;;;;;4.80;2.53;;;17.60;1.00;;;;;;5102847;27;20040;-66
2021/05/30 09:06:54;;;;;;;7.32;2.45;;;17.60;1.00;;;;;;5099826;27;20118;-66
2021/05/30 09:09:44;;;;;;;3.72;2.80;;;17.80;1.00;;;;;;5109851;27;20199;-66
2021/05/30 09:12:36;;;;;;;3.03;2.55;;;18.20;1.00;;;;;;5108090;27;20040;-66
2021/05/30 09:15:56;;;;;;;3.70;2.40;;;17.70;1.00;;;;;;5106634;27;20050;-66
2021/05/30 09:18:44;;;;;;;3.35;2.50;;;17.80;1.00;;;;;;5100291;27;20044;-66
2021/05/30 09:21:32;;;;;;;4.18;2.63;;;17.90;1.00;;;;;;5096084;27;20044;-66
2021/05/30 09:24:20;;;;;;;2.72;2.22;;;18.30;1.00;;;;;;5100810;28;20179;-66
2021/05/30 09:27:09;;;;;;;4.35;2.50;;;18.50;1.00;;;;;;5110078;27;20512;-65
2021/05/30 09:30:19;;;;;;;3.63;2.53;;;18.80;1.00;;;;;;5099790;27;20040;-65
2021/05/30 09:33:10;;;;;;;3.72;2.28;;;18.60;1.00;;;;;;5100182;27;20059;-65
2021/05/30 09:36:02;;;;;;;2.92;2.10;;;18.30;1.00;;;;;;5100021;28;20160;-66
2021/05/30 09:39:02;;;;;;;3.38;2.70;;;18.20;1.00;;;;;;5098595;27;20740;-66
2021/05/30 09:41:50;;;;;;;3.20;2.30;;;18.30;1.00;;;;;;5104658;27;20491;-66
2021/05/30 09:44:38;;;;;;;4.43;2.65;;;18.70;1.00;;;;;;5101310;27;20059;-65
2021/05/30 09:47:32;;;;;;;3.15;2.63;;;18.60;1.00;;;;;;5101506;27;20189;-66
2021/05/30 09:50:21;;;;;;;6.55;2.80;;;18.50;1.00;;;;;;5097973;27;20048;-67
2021/05/30 09:53:10;;;;;;;4.25;2.30;;;18.60;1.00;;;;;;5103919;27;20134;-66
2021/05/30 09:55:58;;;;;;;5.00;2.15;;;18.60;1.00;;;;;;5104856;28;20055;-66
2021/05/30 09:58:51;;;;;;;2.90;2.47;;;19.00;1.00;;;;;;5099253;28;20044;-65
2021/05/30 10:01:58;;;;;;;3.08;2.38;;;18.90;1.00;;;;;;5096562;27;20048;-66
2021/05/30 10:04:46;;;;;;;8.20;2.40;;;19.80;1.00;;;;;;5098270;27;20502;-66
2021/05/30 10:07:34;;;;;;;3.55;2.35;;;19.50;1.00;;;;;;5097039;27;20036;-64
2021/05/30 10:10:24;;;;;;;3.90;2.53;;;18.50;1.00;;;;;;5102381;27;20051;-66
2021/05/30 10:13:13;;;;;;;4.10;2.75;;;19.00;1.00;;;;;;5102993;27;20240;-65
2021/05/30 10:16:01;;;;;;;3.53;2.50;;;19.40;1.00;;;;;;5101159;27;20051;-67
2021/05/30 10:18:52;;;;;;;3.00;2.35;;;18.70;1.00;;;;;;5100794;28;20050;-65
2021/05/30 10:21:43;;;;;;;4.05;2.40;;;18.30;1.00;;;;;;5104142;27;20125;-66
2021/05/30 10:24:32;;;;;;;3.03;2.17;;;18.10;1.00;;;;;;5107038;28;20070;-66
2021/05/30 10:27:23;;;;;;;4.55;2.25;;;18.30;1.00;;;;;;5088252;27;20043;-65
2021/05/30 10:30:17;;;;;;;5.13;2.15;;;18.60;1.00;;;;;;5099262;27;20044;-66
2021/05/30 10:33:13;;;;;;;3.45;2.20;;;18.80;1.00;;;;;;5102881;27;20119;-64
2021/05/30 10:36:12;;;;;;;4.80;2.40;;;19.10;1.00;;;;;;5101921;28;20050;-65
2021/05/30 10:39:01;;;;;;;2.78;1.63;;;19.00;1.00;;;;;;5103996;27;20047;-65
2021/05/30 10:42:07;;;;;;;7.13;2.53;;;18.60;1.00;;;;;;5104625;27;20493;-66
2021/05/30 10:44:59;;;;;;;3.25;1.85;;;18.90;1.00;;;;;;5100638;27;20624;-65
2021/05/30 10:48:10;;;;;;;3.95;2.20;;;18.90;1.00;;;;;;5099016;28;20702;-66
2021/05/30 10:51:10;;;;;;;3.25;2.10;;;19.50;1.00;;;;;;5101818;27;20150;-66
2021/05/30 10:54:16;;;;;;;2.65;2.28;;;19.30;1.00;;;;;;5106425;27;20044;-66
2021/05/30 10:57:05;;;;;;;3.55;2.25;;;19.90;1.00;;;;;;5104964;27;20040;-66
2021/05/30 10:59:53;;;;;;;6.65;2.42;;;19.90;1.00;;;;;;5095275;28;20036;-66
2021/05/30 11:03:07;;;;;;;4.03;2.15;;;20.30;1.00;;;;;;5097336;28;20070;-66
2021/05/30 11:05:57;;;;;;;3.65;2.25;;;20.00;1.00;;;;;;5102820;27;20036;-65
2021/05/30 11:08:57;;;;;;;4.30;2.42;;;19.50;1.00;;;;;;5104925;27;20053;-65
2021/05/30 11:11:45;;;;;;;10.23;2.63;;;19.60;1.00;;;;;;5101513;28;20047;-67
2021/05/30 11:14:33;;;;;;;2.78;2.10;;;18.90;1.00;;;;;;5100188;27;20118;-67
2021/05/30 11:17:34;;;;;;;3.47;2.53;;;18.50;1.00;;;;;;5094816;27;20050;-66
2021/05/30 11:20:27;;;;;;;2.50;2.30;;;19.30;1.00;;;;;;5096264;28;20126;-66
2021/05/30 11:23:19;;;;;;;5.53;2.03;;;19.60;1.00;;;;;;5103499;27;20130;-66
2021/05/30 11:26:10;;;;;;;4.93;2.70;;;19.90;1.00;;;;;;5105905;28;20044;-65
2021/05/30 11:28:59;;;;;;;3.08;2.40;;;19.60;1.00;;;;;;5099298;28;20526;-66
2021/05/30 11:31:47;;;;;;;3.90;2.20;;;20.00;1.00;;;;;;5097385;27;20058;-66
2021/05/30 11:34:35;;;;;;;3.10;2.42;;;19.90;1.00;;;;;;5078258;28;20046;-66
2021/05/30 11:37:24;;;;;;;2.92;2.00;;;19.60;1.00;;;;;;5097127;28;20114;-65
2021/05/30 11:40:18;;;;;;;3.75;2.20;;;20.00;1.00;;;;;;5102865;27;20058;-65
2021/05/30 11:43:14;;;;;;;5.78;2.20;;;19.40;1.00;;;;;;5091772;28;20047;-64
2021/05/30 11:46:10;;;;;;;4.72;2.60;;;19.00;1.00;;;;;;5101777;28;20050;-65
2021/05/30 11:49:01;;;;;;;3.42;2.20;;;18.80;1.00;;;;;;5092147;27;20055;-66
2021/05/30 11:51:59;;;;;;;3.45;2.65;;;18.70;1.00;;;;;;5102915;28;20675;-65
2021/05/30 11:54:52;;;;;;;3.22;2.05;;;18.80;1.00;;;;;;5100013;28;20503;-65
2021/05/30 11:57:39;;;;;;;3.75;2.25;;;18.80;1.00;;;;;;5100077;28;20055;-65
2021/05/30 12:03:35;;;;;;;7.68;2.55;;;19.60;1.00;;;;;;5084722;28;20488;-90
2021/05/30 12:06:23;;;;;;;4.15;2.15;;;19.90;1.00;;;;;;5047741;28;20049;-89
2021/05/30 12:09:11;;;;;;;3.33;2.20;;;19.60;1.00;;;;;;5039415;28;20059;-90
2021/05/30 12:12:00;;;;;;;3.42;2.50;;;19.40;1.00;;;;;;5043584;28;20053;-90
2021/05/30 12:14:49;;;;;;;2.13;1.92;;;19.60;1.00;;;;;;5040668;28;20151;-90
2021/05/30 12:17:39;;;;;;;6.47;2.03;;;20.20;1.00;;;;;;5037303;28;20153;-90
2021/05/30 12:20:30;;;;;;;3.35;2.50;;;20.30;1.00;;;;;;5043665;28;20076;-89
2021/05/30 12:23:19;;;;;;;3.58;2.15;;;20.50;1.00;;;;;;5049339;28;20133;-88
2021/05/30 12:26:11;;;;;;;3.33;2.20;;;19.90;1.00;;;;;;5037909;28;20045;-90
2021/05/30 12:29:00;;;;;;;5.00;2.58;;;20.10;1.00;;;;;;5049197;28;20579;-89
2021/05/30 12:31:48;;;;;;;3.60;2.10;;;19.70;1.00;;;;;;5056912;28;20044;-89
2021/05/30 12:34:37;;;;;;;4.70;2.60;;;19.90;1.00;;;;;;5054962;28;20072;-88
2021/05/30 12:37:42;;;;;;;3.67;2.25;;;20.00;1.00;;;;;;5048930;28;20440;-89
2021/05/30 12:40:35;;;;;;;;;;;19.70;1.00;;;;;;5042610;28;20105;-89
2021/05/30 12:43:34;;;;;;;2.80;2.28;;;19.20;1.00;;;;;;5036710;28;19936;-88
2021/05/30 12:46:24;;;;;;;3.42;2.28;;;19.10;1.00;;;;;;5033634;28;20040;-90
2021/05/30 12:49:14;;;;;;;2.40;2.10;;;19.60;1.00;;;;;;5055024;28;20053;-89
2021/05/30 12:52:06;;;;;;;3.58;2.55;;;19.70;1.00;;;;;;5043715;28;20049;-88
2021/05/30 12:54:59;;;;;;;2.28;1.98;;;20.30;1.00;;;;;;5047462;28;20112;-88
2021/05/30 12:57:49;;;;;;;3.40;2.30;;;20.20;1.00;;;;;;5034719;28;20040;-90
2021/05/30 13:00:38;;;;;;;4.00;2.35;;;20.30;1.00;;;;;;5041997;28;20481;-93
2021/05/30 13:03:27;;;;;;;4.40;2.67;;;20.70;1.00;;;;;;5040354;28;20420;-92
2021/05/30 13:06:15;;;;;;;4.05;2.53;;;20.50;1.00;;;;;;5024184;28;20045;-89
2021/05/30 13:09:04;;;;;;;3.72;2.45;;;20.70;1.00;;;;;;5040082;28;20041;-86
2021/05/30 13:11:52;;;;;;;3.50;2.65;;;20.70;1.00;;;;;;5036730;28;20086;-88
2021/05/30 13:14:40;;;;;;;4.65;2.80;;;20.30;1.00;;;;;;5035129;28;20045;-88
2021/05/30 13:17:28;;;;;;;3.42;2.45;;;19.80;1.00;;;;;;5031405;28;20131;-88
2021/05/30 13:20:25;;;;;;;3.72;2.67;;;19.50;1.00;;;;;;5037905;28;20436;-88
2021/05/30 13:23:18;;;;;;;3.83;3.00;;;19.90;1.00;;;;;;5038922;28;20512;-89
2021/05/30 13:26:09;;;;;;;3.45;2.65;;;19.60;1.00;;;;;;5046720;28;20104;-89
2021/05/30 13:28:57;;;;;;;3.28;2.80;;;19.20;1.00;;;;;;5056409;28;20033;-89
2021/05/30 13:31:50;;;;;;;5.10;2.70;;;18.90;1.00;;;;;;5052290;28;20055;-89
2021/05/30 13:34:42;;;;;;;4.70;3.03;;;19.60;1.00;;;;;;5066364;28;20052;-89
2021/05/30 13:37:33;;;;;;;4.30;2.90;;;20.00;1.00;;;;;;5039553;28;20036;-89
2021/05/30 13:40:22;;;;;;;3.72;2.63;;;20.30;1.00;;;;;;5036338;28;20044;-88
2021/05/30 13:43:10;;;;;;;3.75;2.78;;;20.40;1.00;;;;;;5032265;28;20155;-91
2021/05/30 13:45:58;;;;;;;3.30;2.60;;;19.80;1.00;;;;;;5029232;28;20109;-90
2021/05/30 13:48:47;;;;;;;3.30;2.40;;;19.80;1.00;;;;;;5037677;28;20059;-90
2021/05/30 13:51:35;;;;;;;4.75;2.83;;;20.10;1.00;;;;;;5036378;28;20055;-89
2021/05/30 13:54:24;;;;;;;3.85;2.47;;;20.40;1.00;;;;;;5036687;28;20103;-87
2021/05/30 13:57:13;;;;;;;3.30;2.72;;;19.90;1.00;;;;;;5031940;28;20090;-89
2021/05/30 14:00:01;;;;;;;2.40;2.20;;;19.80;1.00;;;;;;5055200;28;20076;-90
2021/05/30 14:02:49;;;;;;;5.57;2.50;;;20.00;1.00;;;;;;5040267;28;20128;-91
2021/05/30 14:05:37;;;;;;;3.65;2.55;;;20.40;1.00;;;;;;5043314;28;20170;-89
2021/05/30 14:08:25;;;;;;;3.95;2.38;;;20.60;1.00;;;;;;5039432;28;20048;-88
2021/05/30 14:11:14;;;;;;;3.78;2.55;;;20.60;1.00;;;;;;5038586;28;20111;-89
2021/05/30 14:14:22;;;;;;;3.70;2.50;;;20.30;1.00;;;;;;5034809;28;20048;-91
2021/05/30 14:17:30;;;;;;;2.50;2.30;;;20.20;1.00;;;;;;5029275;28;20430;-90
2021/05/30 14:20:19;;;;;;;5.65;2.95;;;19.80;1.00;;;;;;5038375;28;20075;-89
2021/05/30 14:23:07;;;;;;;3.70;2.35;;;19.70;1.00;;;;;;5036305;28;20100;-87
2021/05/30 14:25:55;;;;;;;3.95;2.78;;;19.80;1.00;;;;;;5026342;28;20057;-87
2021/05/30 14:28:48;;;;;;;3.80;2.42;;;19.90;1.00;;;;;;5038789;28;20037;-88
2021/05/30 14:31:36;;;;;;;4.35;2.70;;;19.40;1.00;;;;;;5044070;28;20146;-86
2021/05/30 14:34:26;;;;;;;4.57;3.63;;;19.60;1.00;;;;;;5031314;28;20627;-87
2021/05/30 14:37:15;;;;;;;5.05;3.03;;;19.70;1.00;;;;;;5045721;28;20048;-88
2021/05/30 14:40:04;;;;;;;2.78;2.40;;;20.20;1.00;;;;;;5036948;28;20063;-88
2021/05/30 14:42:53;;;;;;;3.15;2.15;;;20.00;1.00;;;;;;5050204;28;20090;-87
2021/05/30 14:45:47;;;;;;;3.72;2.75;;;20.40;1.00;;;;;;5033978;28;20056;-87
2021/05/30 14:48:42;;;;;;;3.42;2.83;;;20.90;1.00;;;;;;5049914;28;20413;-87
2021/05/30 14:51:32;;;;;;;3.65;2.75;;;20.60;1.00;;;;;;5071624;28;20040;-87
2021/05/30 14:54:22;;;;;;;3.38;2.67;;;21.30;1.00;;;;;;5050660;28;20137;-86
2021/05/30 14:57:10;;;;;;;3.75;2.63;;;20.60;1.00;;;;;;5029036;28;20049;-88
2021/05/30 14:59:59;;;;;;;2.95;2.53;;;20.00;1.00;;;;;;5043457;28;20114;-87
2021/05/30 15:03:39;;;;;;;3.72;2.67;;;19.80;1.00;;;;;;5063143;28;20041;-87